createdAt,value
2023-02-01T00:00:37.744Z,62.83
2023-02-01T00:03:41.588Z,62.00
2023-02-01T00:06:45.359Z,61.66
2023-02-01T00:09:49.070Z,61.59
2023-02-01T00:12:52.820Z,61.42
2023-02-01T00:15:58.149Z,61.63
2023-02-01T00:19:03.771Z,61.33
2023-02-01T00:22:07.773Z,61.45
2023-02-01T00:25:11.754Z,61.31
2023-02-01T00:28:15.208Z,61.28
2023-02-01T00:31:20.475Z,61.33
2023-02-01T00:34:24.229Z,61.60
2023-02-01T00:37:27.812Z,61.38
2023-02-01T00:40:31.450Z,61.54
2023-02-01T00:43:36.383Z,61.83
2023-02-01T00:46:41.890Z,61.91
2023-02-01T00:49:45.462Z,62.29
2023-02-01T00:52:49.062Z,61.98
2023-02-01T00:55:52.666Z,61.80
2023-02-01T00:58:56.270Z,61.85
2023-02-01T01:02:01.336Z,61.64
2023-02-01T01:05:05.092Z,61.42
2023-02-01T01:08:08.624Z,61.74
2023-02-01T01:11:14.932Z,61.76
2023-02-01T01:14:18.600Z,61.52
2023-02-01T01:17:23.672Z,62.10
2023-02-01T01:20:27.321Z,61.93
2023-02-01T01:23:31.045Z,62.39
2023-02-01T01:26:35.010Z,62.43
2023-02-01T01:29:38.983Z,62.01
2023-02-01T01:32:43.922Z,62.20
2023-02-01T01:35:47.314Z,62.25
2023-02-01T01:38:51.453Z,63.26
2023-02-01T01:41:55.678Z,62.66
2023-02-01T01:45:05.014Z,63.20
2023-02-01T01:48:16.424Z,63.64
2023-02-01T01:51:22.659Z,62.90
2023-02-01T01:54:30.722Z,63.10
2023-02-01T01:57:39.282Z,62.68
2023-02-01T02:00:44.099Z,62.44
2023-02-01T02:03:49.930Z,63.16
2023-02-01T02:06:59.981Z,63.21
2023-02-01T02:10:07.137Z,63.15
2023-02-01T02:13:11.719Z,63.52
2023-02-01T02:16:28.226Z,64.93
2023-02-01T02:20:06.750Z,64.37
2023-02-01T02:23:51.743Z,64.60
2023-02-01T02:27:24.130Z,64.32
2023-02-01T02:30:56.625Z,64.16
2023-02-01T02:34:13.623Z,64.16
2023-02-01T02:37:23.989Z,65.03
2023-02-01T02:40:34.946Z,64.44
2023-02-01T02:44:05.581Z,64.55
2023-02-01T02:47:27.253Z,64.18
2023-02-01T02:50:54.951Z,64.11
2023-02-01T02:54:25.143Z,64.75
2023-02-01T02:57:50.604Z,65.14
2023-02-01T03:01:13.129Z,64.69
2023-02-01T03:04:18.883Z,64.69
2023-02-01T03:08:05.262Z,64.41
2023-02-01T03:11:12.812Z,64.13
2023-02-01T03:14:18.598Z,64.08
2023-02-01T03:17:29.879Z,64.08
2023-02-01T03:20:34.891Z,65.40
2023-02-01T03:23:39.857Z,65.12
2023-02-01T03:26:50.901Z,65.09
2023-02-01T03:30:01.555Z,65.41
2023-02-01T03:33:14.935Z,65.28
2023-02-01T03:36:27.531Z,65.52
2023-02-01T03:39:36.923Z,65.71
2023-02-01T03:42:48.417Z,65.60
2023-02-01T03:45:57.116Z,65.85
2023-02-01T03:49:04.948Z,65.92
2023-02-01T03:52:12.695Z,66.27
2023-02-01T03:55:18.735Z,65.82
2023-02-01T03:58:25.113Z,66.18
2023-02-01T04:01:30.882Z,66.40
2023-02-01T04:04:35.973Z,65.74
2023-02-01T04:07:40.691Z,66.62
2023-02-01T04:10:45.175Z,66.27
2023-02-01T04:13:50.220Z,66.34
2023-02-01T04:16:54.031Z,65.43
2023-02-01T04:19:57.985Z,64.96
2023-02-01T04:23:03.698Z,64.72
2023-02-01T04:26:07.850Z,64.66
2023-02-01T04:29:13.335Z,63.96
2023-02-01T04:32:17.192Z,63.72
2023-02-01T04:35:20.822Z,62.92
2023-02-01T04:38:24.455Z,63.00
2023-02-01T04:41:28.069Z,62.90
2023-02-01T04:44:33.193Z,63.37
2023-02-01T04:47:36.845Z,63.19
2023-02-01T04:50:40.560Z,63.18
2023-02-01T04:53:44.204Z,63.41
2023-02-01T04:56:47.773Z,63.34
2023-02-01T04:59:52.748Z,63.01
2023-02-01T05:02:56.254Z,62.32
2023-02-01T05:05:59.751Z,61.85
2023-02-01T05:09:03.233Z,61.80
2023-02-01T05:12:24.937Z,61.69
2023-02-01T05:15:29.924Z,61.35
2023-02-01T05:18:34.169Z,61.44
2023-02-01T05:21:37.804Z,60.81
2023-02-01T05:24:41.351Z,61.25
2023-02-01T05:27:45.388Z,60.95
2023-02-01T05:30:50.670Z,60.51
2023-02-01T05:33:54.324Z,60.71
2023-02-01T05:36:57.935Z,60.96
2023-02-01T05:40:01.536Z,60.60
2023-02-01T05:43:05.418Z,61.31
2023-02-01T05:46:13.817Z,61.06
2023-02-01T05:49:17.519Z,61.52
2023-02-01T05:52:21.024Z,60.41
2023-02-01T05:55:25.113Z,60.55
2023-02-01T06:01:32.848Z,59.00
2023-02-01T06:04:36.493Z,58.48
2023-02-01T06:07:40.252Z,58.32
2023-02-01T06:10:44.004Z,58.62
2023-02-01T06:13:47.639Z,58.11
2023-02-01T06:16:53.659Z,57.73
2023-02-01T06:19:57.314Z,57.23
2023-02-01T06:23:01.001Z,56.26
2023-02-01T06:26:07.084Z,55.56
2023-02-01T06:29:13.145Z,53.93
2023-02-01T06:32:18.683Z,53.40
2023-02-01T06:35:22.490Z,53.32
2023-02-01T06:38:26.221Z,53.55
2023-02-01T06:41:29.896Z,53.76
2023-02-01T06:44:33.924Z,53.21
2023-02-01T06:47:39.131Z,52.44
2023-02-01T06:50:42.858Z,52.54
2023-02-01T06:53:46.589Z,53.04
2023-02-01T06:56:50.589Z,52.54
2023-02-01T06:59:54.321Z,52.97
2023-02-01T07:03:01.189Z,53.58
2023-02-01T07:06:05.693Z,53.00
2023-02-01T07:09:10.289Z,53.22
2023-02-01T07:12:14.523Z,53.31
2023-02-01T07:15:18.479Z,53.10
2023-02-01T07:18:23.719Z,52.95
2023-02-01T07:21:28.995Z,52.73
2023-02-01T07:24:32.987Z,52.99
2023-02-01T07:27:37.073Z,52.89
2023-02-01T07:30:40.870Z,52.85
2023-02-01T07:33:46.207Z,52.63
2023-02-01T07:36:49.936Z,52.75
2023-02-01T07:39:53.665Z,52.38
2023-02-01T07:42:57.699Z,51.73
2023-02-01T07:46:01.606Z,51.64
2023-02-01T07:49:06.718Z,51.11
2023-02-01T07:52:16.445Z,50.84
2023-02-01T07:55:20.155Z,51.08
2023-02-01T07:58:23.912Z,50.99
2023-02-01T08:01:29.911Z,51.60
2023-02-01T08:04:35.322Z,50.86
2023-02-01T08:07:39.180Z,51.56
2023-02-01T08:10:42.828Z,51.76
2023-02-01T08:13:46.753Z,51.79
2023-02-01T08:16:50.424Z,51.55
2023-02-01T08:19:55.564Z,51.70
2023-02-01T08:22:59.564Z,52.23
2023-02-01T08:26:11.179Z,52.26
2023-02-01T08:29:15.028Z,51.82
2023-02-01T08:32:18.750Z,52.04
2023-02-01T08:35:30.505Z,51.89
2023-02-01T08:38:38.569Z,52.20
2023-02-01T08:41:43.343Z,52.15
2023-02-01T08:44:48.352Z,52.48
2023-02-01T08:47:52.193Z,52.82
2023-02-01T08:50:57.649Z,52.76
2023-02-01T08:54:02.112Z,52.77
2023-02-01T08:57:06.097Z,52.72
2023-02-01T09:00:14.169Z,52.49
2023-02-01T09:03:18.392Z,52.08
2023-02-01T09:06:23.494Z,51.22
2023-02-01T09:09:29.889Z,50.13
2023-02-01T09:12:35.639Z,49.67
2023-02-01T09:15:40.401Z,48.21
2023-02-01T09:19:01.658Z,47.31
2023-02-01T09:22:09.224Z,45.79
2023-02-01T09:25:13.715Z,45.44
2023-02-01T09:28:17.558Z,44.74
2023-02-01T09:31:21.509Z,44.20
2023-02-01T09:34:25.206Z,44.69
2023-02-01T09:37:30.530Z,44.42
2023-02-01T09:40:36.594Z,43.58
2023-02-01T09:43:46.351Z,43.93
2023-02-01T09:46:50.301Z,43.19
2023-02-01T09:49:58.663Z,42.87
2023-02-01T09:53:07.412Z,43.07
2023-02-01T09:56:16.622Z,43.17
2023-02-01T09:59:33.200Z,42.45
2023-02-01T10:02:41.553Z,42.36
2023-02-01T10:05:59.426Z,42.33
2023-02-01T10:09:32.121Z,42.66
2023-02-01T10:13:07.461Z,43.08
2023-02-01T10:16:29.127Z,43.79
2023-02-01T10:19:46.624Z,43.58
2023-02-01T10:23:16.315Z,43.57
2023-02-01T10:26:24.506Z,43.32
2023-02-01T10:29:37.079Z,44.12
2023-02-01T10:32:43.570Z,44.48
2023-02-01T10:35:48.910Z,43.41
2023-02-01T10:38:52.623Z,42.85
2023-02-01T10:41:58.702Z,42.51
2023-02-01T10:45:05.955Z,41.85
2023-02-01T10:48:11.181Z,41.62
2023-02-01T10:51:19.373Z,42.20
2023-02-01T10:54:25.074Z,40.90
2023-02-01T10:57:30.967Z,40.91
2023-02-01T11:00:45.621Z,40.77
2023-02-01T11:03:56.182Z,40.78
2023-02-01T11:07:09.680Z,40.44
2023-02-01T11:10:39.391Z,40.31
2023-02-01T11:13:44.859Z,40.55
2023-02-01T11:16:52.104Z,40.74
2023-02-01T11:20:01.202Z,40.59
2023-02-01T11:23:05.383Z,40.42
2023-02-01T11:26:14.302Z,40.59
2023-02-01T11:29:24.264Z,40.03
2023-02-01T11:32:29.343Z,40.63
2023-02-01T11:35:33.284Z,40.12
2023-02-01T11:38:37.544Z,39.87
2023-02-01T11:41:45.857Z,39.92
2023-02-01T11:44:51.309Z,40.66
2023-02-01T11:47:56.154Z,40.30
2023-02-01T11:51:19.043Z,40.50
2023-02-01T11:54:42.566Z,40.71
2023-02-01T11:57:58.230Z,40.68
2023-02-01T12:01:22.875Z,40.74
2023-02-01T12:05:17.273Z,40.48
2023-02-01T12:08:53.630Z,40.64
2023-02-01T12:12:06.463Z,39.89
2023-02-01T12:15:30.921Z,40.19
2023-02-01T12:18:53.861Z,40.56
2023-02-01T12:22:15.002Z,40.52
2023-02-01T12:25:32.212Z,39.90
2023-02-01T12:28:48.169Z,40.96
2023-02-01T12:32:13.602Z,41.08
2023-02-01T12:35:41.189Z,40.79
2023-02-01T12:38:55.201Z,41.12
2023-02-01T12:42:04.548Z,40.16
2023-02-01T12:45:16.940Z,39.80
2023-02-01T12:48:30.493Z,40.10
2023-02-01T12:51:39.244Z,39.08
2023-02-01T12:54:49.753Z,39.80
2023-02-01T12:57:58.007Z,40.33
2023-02-01T13:01:05.052Z,40.78
2023-02-01T13:04:17.513Z,41.31
2023-02-01T13:07:26.621Z,41.84
2023-02-01T13:10:36.873Z,42.39
2023-02-01T13:13:51.036Z,42.85
2023-02-01T13:17:00.471Z,42.92
2023-02-01T13:20:09.363Z,42.98
2023-02-01T13:23:21.053Z,42.91
2023-02-01T13:26:24.699Z,42.17
2023-02-01T13:29:30.501Z,41.44
2023-02-01T13:33:50.184Z,40.68
2023-02-01T13:36:31.753Z,40.45
2023-02-01T13:39:51.504Z,39.99
2023-02-01T13:42:58.088Z,39.97
2023-02-01T13:46:09.542Z,40.16
2023-02-01T13:49:23.329Z,40.04
2023-02-01T13:52:34.751Z,39.99
2023-02-01T13:55:41.815Z,39.78
2023-02-01T13:58:47.063Z,39.78
2023-02-01T14:01:51.220Z,39.95
2023-02-01T14:04:54.833Z,39.60
2023-02-01T14:08:14.494Z,39.55
2023-02-01T14:11:41.844Z,39.27
2023-02-01T14:14:46.102Z,39.67
2023-02-01T14:17:49.779Z,39.96
2023-02-01T14:21:22.083Z,39.76
2023-02-01T14:24:28.917Z,40.24
2023-02-01T14:27:38.354Z,40.04
2023-02-01T14:30:45.707Z,40.29
2023-02-01T14:33:49.492Z,40.39
2023-02-01T14:36:59.645Z,40.52
2023-02-01T14:40:05.497Z,40.72
2023-02-01T14:43:23.383Z,41.17
2023-02-01T14:47:06.239Z,41.67
2023-02-01T14:50:30.656Z,41.75
2023-02-01T14:53:37.088Z,41.85
2023-02-01T14:56:41.323Z,42.24
2023-02-01T14:59:48.300Z,42.61
2023-02-01T15:02:53.869Z,42.50
2023-02-01T15:05:59.026Z,43.14
2023-02-01T15:09:06.446Z,42.91
2023-02-01T15:12:28.071Z,43.20
2023-02-01T15:15:37.628Z,43.13
2023-02-01T15:18:42.360Z,43.15
2023-02-01T15:21:49.046Z,43.30
2023-02-01T15:24:56.068Z,43.38
2023-02-01T15:28:00.423Z,43.49
2023-02-01T15:31:07.667Z,43.79
2023-02-01T15:34:11.763Z,43.72
2023-02-01T15:37:17.773Z,44.07
2023-02-01T15:40:24.194Z,44.14
2023-02-01T15:43:29.663Z,43.96
2023-02-01T15:46:38.106Z,43.98
2023-02-01T15:49:44.526Z,43.82
2023-02-01T15:52:51.323Z,44.29
2023-02-01T15:55:59.353Z,44.28
2023-02-01T15:59:05.986Z,44.20
2023-02-01T16:05:41.127Z,44.09
2023-02-01T16:08:53.585Z,43.78
2023-02-01T16:12:00.444Z,43.59
2023-02-01T16:15:04.575Z,43.91
2023-02-01T16:18:09.329Z,43.82
2023-02-01T16:21:14.570Z,43.98
2023-02-01T16:24:18.190Z,44.25
2023-02-01T16:27:23.486Z,44.09
2023-02-01T16:30:27.669Z,43.48
2023-02-01T16:33:31.406Z,43.21
2023-02-01T16:36:36.741Z,42.94
2023-02-01T16:39:40.427Z,43.18
2023-02-01T16:42:44.122Z,42.89
2023-02-01T16:45:49.967Z,42.38
2023-02-01T16:48:56.583Z,42.33
2023-02-01T16:52:01.801Z,42.12
2023-02-01T16:55:11.223Z,42.04
2023-02-01T16:58:14.835Z,42.05
2023-02-01T17:01:20.898Z,41.95
2023-02-01T17:04:24.951Z,42.39
2023-02-01T17:07:30.487Z,42.53
2023-02-01T17:10:34.890Z,42.50
2023-02-01T17:13:38.626Z,42.53
2023-02-01T17:16:42.923Z,42.66
2023-02-01T17:19:48.784Z,42.76
2023-02-01T17:22:54.545Z,42.67
2023-02-01T17:25:58.584Z,42.97
2023-02-01T17:29:02.517Z,42.72
2023-02-01T17:32:06.759Z,42.77
2023-02-01T17:35:20.264Z,43.26
2023-02-01T17:38:26.005Z,43.59
2023-02-01T17:41:29.967Z,43.56
2023-02-01T17:44:34.049Z,43.51
2023-02-01T17:47:39.052Z,43.53
2023-02-01T17:50:43.068Z,43.72
2023-02-01T17:53:48.765Z,43.96
2023-02-01T17:56:52.812Z,43.28
2023-02-01T17:59:56.449Z,43.78
2023-02-01T18:03:00.931Z,43.34
2023-02-01T18:06:06.035Z,43.70
2023-02-01T18:09:11.120Z,44.15
2023-02-01T18:12:20.103Z,44.15
2023-02-01T18:15:26.262Z,44.34
2023-02-01T18:18:31.435Z,44.36
2023-02-01T18:21:37.718Z,44.04
2023-02-01T18:24:42.835Z,44.01
2023-02-01T18:27:46.729Z,43.48
2023-02-01T18:30:52.303Z,43.51
2023-02-01T18:33:58.243Z,43.93
2023-02-01T18:37:02.539Z,43.22
2023-02-01T18:40:10.175Z,43.59
2023-02-01T18:43:15.357Z,43.53
2023-02-01T18:46:19.850Z,43.32
2023-02-01T18:49:23.575Z,43.26
2023-02-01T18:52:27.533Z,43.19
2023-02-01T18:55:33.308Z,42.76
2023-02-01T18:58:37.041Z,43.26
2023-02-01T19:01:40.890Z,43.38
2023-02-01T19:04:44.719Z,43.12
2023-02-01T19:07:48.860Z,43.57
2023-02-01T19:10:54.496Z,43.18
2023-02-01T19:13:58.291Z,43.21
2023-02-01T19:17:02.036Z,43.36
2023-02-01T19:20:06.244Z,42.74
2023-02-01T19:23:10.351Z,42.39
2023-02-01T19:26:16.975Z,42.50
2023-02-01T19:29:20.645Z,42.04
2023-02-01T19:32:24.591Z,42.00
2023-02-01T19:35:28.203Z,42.38
2023-02-01T19:38:31.981Z,42.26
2023-02-01T19:41:37.342Z,41.98
2023-02-01T19:44:41.102Z,42.13
2023-02-01T19:47:44.724Z,42.10
2023-02-01T19:50:48.448Z,41.97
2023-02-01T19:53:52.122Z,42.14
2023-02-01T19:56:57.181Z,42.19
2023-02-01T20:00:00.819Z,41.55
2023-02-01T20:03:03.786Z,42.09
2023-02-01T20:06:07.759Z,42.05
2023-02-01T20:09:11.586Z,42.11
2023-02-01T20:12:16.863Z,42.10
2023-02-01T20:15:22.450Z,42.02
2023-02-01T20:18:26.502Z,42.44
2023-02-01T20:21:30.240Z,42.02
2023-02-01T20:24:33.923Z,42.20
2023-02-01T20:27:39.964Z,42.50
2023-02-01T20:30:45.603Z,42.17
2023-02-01T20:33:49.410Z,42.55
2023-02-01T20:36:53.030Z,42.78
2023-02-01T20:39:56.859Z,43.46
2023-02-01T20:43:01.983Z,43.54
2023-02-01T20:46:05.912Z,43.85
2023-02-01T20:49:09.739Z,43.52
2023-02-01T20:52:13.424Z,43.26
2023-02-01T20:55:17.188Z,43.16
2023-02-01T20:58:23.218Z,43.34
2023-02-01T21:01:26.928Z,43.45
2023-02-01T21:04:30.814Z,43.28
2023-02-01T21:07:34.427Z,43.54
2023-02-01T21:10:38.841Z,43.43
2023-02-01T21:13:50.757Z,43.83
2023-02-01T21:16:54.600Z,44.57
2023-02-01T21:19:58.272Z,44.49
2023-02-01T21:23:01.996Z,45.04
2023-02-01T21:26:05.922Z,44.87
2023-02-01T21:29:12.953Z,45.36
2023-02-01T21:32:16.582Z,45.45
2023-02-01T21:35:20.284Z,45.66
2023-02-01T21:38:23.885Z,45.51
2023-02-01T21:41:44.954Z,45.24
2023-02-01T21:44:50.244Z,45.90
2023-02-01T21:47:54.014Z,46.02
2023-02-01T21:50:58.432Z,45.84
2023-02-01T21:54:02.332Z,45.76
2023-02-01T21:57:10.001Z,45.56
2023-02-01T22:00:16.662Z,45.78
2023-02-01T22:03:20.421Z,45.84
2023-02-01T22:06:25.447Z,45.81
2023-02-01T22:09:29.091Z,45.91
2023-02-01T22:12:32.903Z,46.42
2023-02-01T22:15:38.142Z,46.64
2023-02-01T22:18:41.861Z,47.75
2023-02-01T22:21:47.616Z,47.90
2023-02-01T22:24:51.339Z,48.35
2023-02-01T22:28:31.599Z,48.53
2023-02-01T22:31:21.096Z,48.66
2023-02-01T22:34:24.704Z,48.52
2023-02-01T22:37:28.384Z,47.93
2023-02-01T22:40:32.078Z,48.10
2023-02-01T22:43:36.501Z,47.51
2023-02-01T22:46:41.704Z,47.78
2023-02-01T22:49:45.451Z,46.82
2023-02-01T22:52:49.018Z,47.06
2023-02-01T22:55:52.655Z,47.49
2023-02-01T22:58:57.723Z,47.03
2023-02-01T23:02:02.958Z,46.93
2023-02-01T23:05:06.841Z,46.76
2023-02-01T23:08:10.622Z,46.75
2023-02-01T23:11:14.859Z,46.78
2023-02-01T23:14:19.335Z,46.64
2023-02-01T23:17:24.498Z,46.52
2023-02-01T23:20:29.026Z,46.75
2023-02-01T23:23:32.667Z,46.27
2023-02-01T23:26:37.042Z,46.61
2023-02-01T23:29:40.856Z,46.48
2023-02-01T23:32:46.064Z,45.50
2023-02-01T23:35:56.581Z,45.79
2023-02-01T23:39:00.208Z,45.51
2023-02-01T23:42:05.138Z,45.18
2023-02-01T23:45:09.591Z,45.12
2023-02-01T23:48:14.569Z,44.93
2023-02-01T23:51:18.372Z,45.26
2023-02-01T23:54:23.016Z,45.55
2023-02-01T23:57:26.647Z,45.24
